createdAt,value
2022-12-23T00:02:01.191Z,99989.53
2022-12-23T00:07:03.508Z,99974.63
2022-12-23T00:12:05.369Z,99968.50
2022-12-23T00:17:22.136Z,99962.34
2022-12-23T00:22:26.991Z,99965.88
2022-12-23T00:27:32.912Z,99956.22
2022-12-23T00:32:40.948Z,99952.72
2022-12-23T00:37:42.964Z,99957.09
2022-12-23T00:42:45.046Z,99960.63
2022-12-23T00:47:48.603Z,99944.84
2022-12-23T00:52:50.560Z,99946.59
2022-12-23T00:57:53.055Z,99950.94
2022-12-23T01:02:56.426Z,99946.59
2022-12-23T01:07:58.232Z,99942.22
2022-12-23T01:13:00.307Z,99935.19
2022-12-23T01:18:03.818Z,99935.19
2022-12-23T01:23:05.850Z,99933.47
2022-12-23T01:28:07.574Z,99933.44
2022-12-23T01:33:11.271Z,99925.53
2022-12-23T01:38:13.427Z,99922.00
2022-12-23T01:43:16.837Z,99915.84
2022-12-23T01:48:23.409Z,99907.09
2022-12-23T01:53:28.722Z,99902.69
2022-12-23T01:58:33.482Z,99895.69
2022-12-23T02:03:37.757Z,99889.53
2022-12-23T02:08:39.875Z,99890.41
2022-12-23T02:13:50.507Z,99881.63
2022-12-23T02:19:08.235Z,99876.38
2022-12-23T02:24:43.894Z,99869.34
2022-12-23T02:30:06.994Z,99872.84
2022-12-23T02:35:15.241Z,99855.28
2022-12-23T02:40:28.485Z,99837.78
2022-12-23T02:45:36.384Z,99838.66
2022-12-23T02:50:43.995Z,99844.78
2022-12-23T02:55:48.537Z,99833.34
2022-12-23T03:00:51.700Z,99833.34
2022-12-23T03:05:55.301Z,99835.06
2022-12-23T03:11:04.009Z,99827.16
2022-12-23T03:16:14.456Z,99819.28
2022-12-23T03:21:22.741Z,99814.91
2022-12-23T03:26:30.680Z,99818.41
2022-12-23T03:31:34.732Z,99813.16
2022-12-23T03:36:42.191Z,99806.09
2022-12-23T03:41:48.870Z,99807.81
2022-12-23T03:46:55.575Z,99816.59
2022-12-23T03:52:03.838Z,99806.91
2022-12-23T03:57:08.893Z,99813.03
2022-12-23T04:02:16.849Z,99797.25
2022-12-23T04:07:24.212Z,99794.59
2022-12-23T04:12:27.563Z,99783.22
2022-12-23T04:17:29.741Z,99779.66
2022-12-23T04:22:33.197Z,99787.56
2022-12-23T04:27:35.257Z,99771.72
2022-12-23T04:32:37.549Z,99781.38
2022-12-23T04:37:41.284Z,99777.88
2022-12-23T04:42:43.273Z,99776.09
2022-12-23T04:47:45.271Z,99777.00
2022-12-23T04:52:48.685Z,99763.88
2022-12-23T04:57:50.772Z,99777.81
2022-12-23T05:02:52.864Z,99776.97
2022-12-23T05:08:02.906Z,99792.75
2022-12-23T05:13:04.879Z,99786.63
2022-12-23T05:18:06.824Z,99784.81
2022-12-23T05:23:10.762Z,99790.06
2022-12-23T05:28:12.901Z,99772.38
2022-12-23T05:33:15.620Z,99776.69
2022-12-23T05:38:19.339Z,99777.53
2022-12-23T05:43:22.031Z,99782.75
2022-12-23T05:48:24.122Z,99772.09
2022-12-23T05:53:27.569Z,99770.25
2022-12-23T05:58:29.707Z,99790.44
2022-12-23T06:03:32.055Z,99791.25
2022-12-23T06:08:35.661Z,99800.84
2022-12-23T06:13:37.832Z,99806.09
2022-12-23T06:18:40.141Z,99810.34
2022-12-23T06:23:43.699Z,99813.75
2022-12-23T06:28:45.824Z,99813.59
2022-12-23T06:33:47.546Z,99822.13
2022-12-23T06:38:51.686Z,99820.25
2022-12-23T06:43:54.618Z,99818.25
2022-12-23T06:48:56.965Z,99835.81
2022-12-23T06:54:00.946Z,99855.06
2022-12-23T06:59:03.041Z,99862.13
2022-12-23T07:04:05.018Z,99877.88
2022-12-23T07:09:08.456Z,99875.31
2022-12-23T07:14:10.597Z,99884.91
2022-12-23T07:19:12.355Z,99884.03
2022-12-23T07:24:15.408Z,99894.56
2022-12-23T07:29:17.465Z,99895.41
2022-12-23T07:34:19.453Z,99893.72
2022-12-23T07:39:23.051Z,99901.63
2022-12-23T07:44:25.217Z,99904.28
2022-12-23T07:49:27.184Z,99913.91
2022-12-23T07:54:30.272Z,99914.72
2022-12-23T07:59:32.067Z,99912.25
2022-12-23T08:04:34.243Z,99919.34
2022-12-23T08:09:37.427Z,99917.59
2022-12-23T08:14:39.369Z,99933.38
2022-12-23T08:19:41.093Z,99943.03
2022-12-23T08:24:44.623Z,99943.06
2022-12-23T08:29:46.465Z,99950.19
2022-12-23T08:34:48.482Z,99941.44
2022-12-23T08:39:51.847Z,99950.31
2022-12-23T08:44:55.399Z,99958.16
2022-12-23T08:49:57.471Z,99967.09
2022-12-23T08:55:00.857Z,99969.66
2022-12-23T09:00:03.512Z,99975.84
2022-12-23T09:05:05.485Z,99973.97
2022-12-23T09:10:09.239Z,99978.50
2022-12-23T09:15:11.747Z,99998.75
2022-12-23T09:20:13.832Z,100012.72
2022-12-23T09:25:17.111Z,100014.53
2022-12-23T09:30:19.428Z,100028.50
2022-12-23T09:35:21.259Z,100034.81
2022-12-23T09:40:24.733Z,100041.59
2022-12-23T09:45:45.047Z,100044.41
2022-12-23T09:50:47.170Z,100062.88
2022-12-23T09:55:57.719Z,100077.00
2022-12-23T10:01:16.907Z,100073.59
2022-12-23T10:06:25.055Z,100073.53
2022-12-23T10:11:31.245Z,100070.19
2022-12-23T10:16:38.925Z,100056.97
2022-12-23T10:21:47.455Z,100066.59
2022-12-23T10:26:53.779Z,100077.19
2022-12-23T10:32:06.262Z,100066.63
2022-12-23T10:37:15.200Z,100060.44
2022-12-23T10:42:28.517Z,100062.97
2022-12-23T10:47:41.424Z,100055.91
2022-12-23T10:52:47.212Z,100063.13
2022-12-23T10:57:52.750Z,100075.25
2022-12-23T11:03:06.779Z,100073.94
2022-12-23T11:08:09.849Z,100083.72
2022-12-23T11:13:23.508Z,100077.78
2022-12-23T11:18:25.381Z,100076.88
2022-12-23T11:23:29.433Z,100084.78
2022-12-23T11:28:35.797Z,100093.78
2022-12-23T11:33:39.899Z,100095.59
2022-12-23T11:38:49.624Z,100101.78
2022-12-23T11:43:57.335Z,100113.97
2022-12-23T11:49:16.204Z,100114.06
2022-12-23T11:54:20.353Z,100118.47
2022-12-23T11:59:31.366Z,100131.59
2022-12-23T12:04:36.184Z,100119.31
2022-12-23T12:09:40.954Z,100132.53
2022-12-23T12:14:47.303Z,100120.91
2022-12-23T12:19:59.500Z,100121.81
2022-12-23T12:25:12.105Z,100115.78
2022-12-23T12:30:18.301Z,100091.06
2022-12-23T12:35:25.640Z,100091.78
2022-12-23T12:40:32.699Z,100099.75
2022-12-23T12:45:42.319Z,100099.59
2022-12-23T12:50:54.369Z,100099.50
2022-12-23T12:56:02.869Z,100101.47
2022-12-23T13:01:22.456Z,100101.56
2022-12-23T13:06:35.118Z,100110.47
2022-12-23T13:11:42.270Z,100099.00
2022-12-23T13:16:52.614Z,100083.16
2022-12-23T13:22:01.803Z,100083.25
2022-12-23T13:27:11.377Z,100080.81
2022-12-23T13:32:25.275Z,100067.38
2022-12-23T13:37:36.502Z,100069.16
2022-12-23T13:42:44.199Z,100052.56
2022-12-23T13:48:04.375Z,100056.91
2022-12-23T13:53:16.680Z,100064.69
2022-12-23T13:58:21.438Z,100067.47
2022-12-23T14:03:26.333Z,100066.69
2022-12-23T14:08:40.779Z,100075.47
2022-12-23T14:13:46.235Z,100070.25
2022-12-23T14:19:10.887Z,100063.22
2022-12-23T14:24:31.754Z,100079.16
2022-12-23T14:29:48.932Z,100081.81
2022-12-23T14:35:23.643Z,100075.63
2022-12-23T14:40:48.661Z,100060.72
2022-12-23T14:45:52.754Z,100075.75
2022-12-23T14:50:59.843Z,100088.13
2022-12-23T14:56:20.827Z,100085.50
2022-12-23T15:01:31.505Z,100075.78
2022-12-23T15:06:37.966Z,100083.72
2022-12-23T15:11:40.492Z,100083.72
2022-12-23T15:16:43.627Z,100088.13
2022-12-23T15:21:53.731Z,100087.28
2022-12-23T15:32:24.328Z,100076.78
2022-12-23T15:37:29.332Z,100075.00
2022-12-23T15:42:31.754Z,100074.19
2022-12-23T15:47:38.376Z,100074.19
2022-12-23T15:52:45.026Z,100080.38
2022-12-23T15:57:50.825Z,100079.50
2022-12-23T16:03:00.914Z,100086.59
2022-12-23T16:08:29.134Z,100093.69
2022-12-23T16:13:33.658Z,100081.41
2022-12-23T16:18:46.967Z,100084.06
2022-12-23T16:23:53.140Z,100081.44
2022-12-23T16:28:59.235Z,100076.16
2022-12-23T16:34:06.780Z,100079.66
2022-12-23T16:39:18.968Z,100061.97
2022-12-23T16:44:21.188Z,100056.81
2022-12-23T16:49:27.957Z,100047.06
2022-12-23T16:54:33.320Z,100039.25
2022-12-23T16:59:35.510Z,100045.41
2022-12-23T17:04:37.584Z,100036.63
2022-12-23T17:09:41.297Z,100026.94
2022-12-23T17:14:43.602Z,100025.22
2022-12-23T17:19:45.462Z,100004.16
2022-12-23T17:24:49.003Z,100011.16
2022-12-23T17:29:51.190Z,99986.66
2022-12-23T17:34:53.216Z,99991.81
2022-12-23T17:39:57.137Z,99978.56
2022-12-23T17:44:59.279Z,99963.78
2022-12-23T17:50:00.989Z,99970.78
2022-12-23T17:55:06.510Z,99954.97
2022-12-23T18:00:09.608Z,99967.28
2022-12-23T18:05:23.561Z,99974.34
2022-12-23T18:10:29.397Z,99970.88
2022-12-23T18:15:34.419Z,99982.28
2022-12-23T18:20:36.287Z,99984.06
2022-12-23T18:25:39.758Z,99985.81
2022-12-23T18:30:42.087Z,99973.53
2022-12-23T18:35:46.564Z,99979.56
2022-12-23T18:40:49.688Z,99968.16
2022-12-23T18:45:53.852Z,99955.84
2022-12-23T18:50:56.429Z,99962.09
2022-12-23T18:55:59.854Z,99956.81
2022-12-23T19:01:02.038Z,99954.22
2022-12-23T19:06:06.733Z,99947.19
2022-12-23T19:11:15.727Z,99954.13
2022-12-23T19:16:21.214Z,99932.25
2022-12-23T19:21:23.129Z,99939.28
2022-12-23T19:26:26.481Z,99933.13
2022-12-23T19:31:28.862Z,99934.88
2022-12-23T19:36:31.071Z,99925.22
2022-12-23T19:41:34.666Z,99925.22
2022-12-23T19:46:36.385Z,99926.94
2022-12-23T19:51:38.731Z,99918.19
2022-12-23T19:56:42.687Z,99909.41
2022-12-23T20:01:45.344Z,99918.16
2022-12-23T20:06:47.306Z,99902.38
2022-12-23T20:11:50.930Z,99886.56
2022-12-23T20:16:53.172Z,99872.53
2022-12-23T20:21:55.366Z,99869.97
2022-12-23T20:26:58.705Z,99864.75
2022-12-23T20:32:00.616Z,99862.94
2022-12-23T20:37:02.386Z,99856.81
2022-12-23T20:42:06.122Z,99848.97
2022-12-23T20:47:08.171Z,99861.28
2022-12-23T20:52:10.031Z,99870.03
2022-12-23T20:57:13.697Z,99873.53
2022-12-23T21:02:16.277Z,99883.16
2022-12-23T21:07:18.647Z,99874.41
2022-12-23T21:12:22.588Z,99883.19
2022-12-23T21:17:24.629Z,99877.00
2022-12-23T21:22:26.706Z,99879.75
2022-12-23T21:27:30.163Z,99859.50
2022-12-23T21:32:31.871Z,99868.19
2022-12-23T21:37:33.893Z,99863.84
2022-12-23T21:42:37.349Z,99855.94
2022-12-23T21:47:39.345Z,99860.31
2022-12-23T21:52:41.605Z,99848.00
2022-12-23T21:57:45.310Z,99835.75
2022-12-23T22:02:47.692Z,99832.25
2022-12-23T22:07:49.655Z,99826.13
2022-12-23T22:12:53.064Z,99828.72
2022-12-23T22:17:55.151Z,99827.84
2022-12-23T22:22:57.187Z,99826.94
2022-12-23T22:28:00.683Z,99821.72
2022-12-23T22:33:02.778Z,99821.66
2022-12-23T22:38:04.899Z,99816.47
2022-12-23T22:43:08.625Z,99807.63
2022-12-23T22:48:10.609Z,99803.28
2022-12-23T22:53:14.502Z,99807.69
2022-12-23T22:58:17.972Z,99812.06
2022-12-23T23:03:20.674Z,99813.78
2022-12-23T23:08:23.535Z,99820.00
2022-12-23T23:13:28.814Z,99813.81
2022-12-23T23:18:31.102Z,99821.78
2022-12-23T23:23:33.216Z,99823.50
2022-12-23T23:28:37.027Z,99834.03
2022-12-23T23:33:39.145Z,99837.56
2022-12-23T23:38:41.123Z,99837.59
2022-12-23T23:43:44.642Z,99836.72
2022-12-23T23:48:47.750Z,99830.59
2022-12-23T23:53:49.756Z,99841.94
2022-12-23T23:58:53.572Z,99845.47
